createdAt,value
2023-05-19T00:01:52.555Z,2.20
2023-05-19T00:04:25.848Z,1.95
2023-05-19T00:07:00.385Z,2.10
2023-05-19T00:09:33.723Z,2.63
2023-05-19T00:12:10.674Z,2.28
2023-05-19T00:14:43.874Z,2.72
2023-05-19T00:17:17.479Z,2.20
2023-05-19T00:19:50.430Z,1.88
2023-05-19T00:24:56.533Z,1.80
2023-05-19T00:27:30.730Z,1.60
2023-05-19T00:30:03.539Z,2.10
2023-05-19T00:32:36.517Z,1.90
2023-05-19T00:37:43.440Z,2.22
2023-05-19T00:40:17.968Z,2.28
2023-05-19T00:42:52.355Z,2.30
2023-05-19T00:45:26.122Z,1.80
2023-05-19T00:47:59.117Z,1.88
2023-05-19T00:50:33.574Z,2.20
2023-05-19T00:53:06.865Z,1.80
2023-05-19T00:55:40.549Z,2.13
2023-05-19T00:58:15.608Z,2.42
2023-05-19T01:00:49.754Z,2.08
2023-05-19T01:03:23.307Z,2.08
2023-05-19T01:05:56.224Z,2.25
2023-05-19T01:08:31.723Z,2.10
2023-05-19T01:11:05.391Z,1.67
2023-05-19T01:13:41.947Z,2.10
2023-05-19T01:16:23.135Z,1.90
2023-05-19T01:19:04.005Z,2.00
2023-05-19T01:22:13.088Z,1.90
2023-05-19T01:25:36.101Z,1.88
2023-05-19T01:28:27.251Z,2.35
2023-05-19T01:31:02.123Z,1.92
2023-05-19T01:33:35.997Z,2.92
2023-05-19T01:36:09.735Z,2.55
2023-05-19T01:38:44.383Z,2.28
2023-05-19T01:41:17.680Z,2.15
2023-05-19T01:43:58.017Z,2.33
2023-05-19T01:46:32.365Z,2.10
2023-05-19T01:49:05.893Z,1.70
2023-05-19T01:51:38.765Z,1.65
2023-05-19T01:54:11.524Z,2.28
2023-05-19T01:56:53.644Z,1.75
2023-05-19T01:59:42.568Z,2.33
2023-05-19T02:02:27.409Z,2.53
2023-05-19T02:05:10.967Z,2.13
2023-05-19T02:07:49.878Z,1.65
2023-05-19T02:10:27.702Z,2.15
2023-05-19T02:13:05.874Z,2.25
2023-05-19T02:15:42.364Z,3.22
2023-05-19T02:18:20.428Z,1.80
2023-05-19T02:20:58.516Z,1.90
2023-05-19T02:23:31.935Z,2.75
2023-05-19T02:26:04.903Z,1.60
2023-05-19T02:28:39.268Z,1.65
2023-05-19T02:33:48.889Z,2.13
2023-05-19T02:36:21.695Z,1.35
2023-05-19T02:38:55.698Z,2.05
2023-05-19T02:41:28.736Z,2.03
2023-05-19T02:44:01.711Z,2.00
2023-05-19T02:49:09.080Z,1.80
2023-05-19T02:51:41.972Z,2.20
2023-05-19T02:54:15.178Z,1.83
2023-05-19T02:56:47.941Z,1.85
2023-05-19T02:59:20.846Z,2.25
2023-05-19T03:01:56.995Z,1.98
2023-05-19T03:04:31.703Z,2.47
2023-05-19T03:07:06.408Z,2.60
2023-05-19T03:09:39.331Z,1.90
2023-05-19T03:12:12.105Z,1.95
2023-05-19T03:14:47.025Z,1.85
2023-05-19T03:17:19.962Z,1.67
2023-05-19T03:22:26.992Z,1.98
2023-05-19T03:25:00.056Z,1.83
2023-05-19T03:27:32.959Z,2.13
2023-05-19T03:32:45.251Z,1.50
2023-05-19T03:35:20.383Z,1.98
2023-05-19T03:37:53.288Z,1.95
2023-05-19T03:40:27.076Z,1.95
2023-05-19T03:43:06.229Z,1.83
2023-05-19T03:45:44.020Z,2.33
2023-05-19T03:48:36.880Z,2.20
2023-05-19T03:51:39.650Z,2.20
2023-05-19T03:54:24.318Z,1.90
2023-05-19T03:59:29.944Z,1.65
2023-05-19T04:02:02.848Z,1.80
2023-05-19T04:04:35.806Z,1.92
2023-05-19T04:07:10.128Z,1.88
2023-05-19T04:09:42.960Z,1.90
2023-05-19T04:14:51.422Z,2.10
2023-05-19T04:17:28.410Z,1.80
2023-05-19T04:20:01.419Z,1.95
2023-05-19T04:22:35.929Z,2.30
2023-05-19T04:25:09.484Z,2.08
2023-05-19T04:27:42.593Z,1.70
2023-05-19T04:30:22.621Z,2.22
2023-05-19T04:32:58.155Z,2.50
2023-05-19T04:35:32.034Z,2.08
2023-05-19T04:38:08.127Z,1.88
2023-05-19T04:40:44.585Z,1.85
2023-05-19T04:43:18.135Z,2.85
2023-05-19T04:45:51.662Z,2.10
2023-05-19T04:48:27.428Z,2.05
2023-05-19T04:51:01.554Z,2.40
2023-05-19T04:53:36.636Z,2.28
2023-05-19T04:56:16.119Z,3.25
2023-05-19T04:58:51.134Z,3.10
2023-05-19T05:01:26.013Z,2.50
2023-05-19T05:04:02.334Z,2.63
2023-05-19T05:06:38.600Z,3.00
2023-05-19T05:09:13.696Z,2.30
2023-05-19T05:11:47.092Z,3.03
2023-05-19T05:14:20.558Z,2.30
2023-05-19T05:16:56.832Z,3.00
2023-05-19T05:19:31.500Z,2.80
2023-05-19T05:22:06.248Z,2.50
2023-05-19T05:24:43.266Z,2.83
2023-05-19T05:40:30.539Z,2.25
2023-05-19T05:43:03.580Z,2.63
2023-05-19T05:45:40.054Z,2.63
2023-05-19T05:48:14.666Z,2.83
2023-05-19T05:50:49.948Z,2.25
2023-05-19T05:53:27.797Z,3.00
2023-05-19T05:56:03.544Z,3.10
2023-05-19T05:58:44.623Z,2.90
2023-05-19T06:03:50.952Z,2.70
2023-05-19T06:06:27.237Z,3.63
2023-05-19T06:09:00.809Z,2.50
2023-05-19T06:11:36.496Z,2.92
2023-05-19T06:14:10.745Z,2.58
2023-05-19T06:17:18.035Z,2.40
2023-05-19T06:19:51.057Z,2.67
2023-05-19T06:24:56.652Z,2.90
2023-05-19T06:27:32.622Z,2.75
2023-05-19T06:30:09.134Z,2.38
2023-05-19T06:32:51.962Z,2.78
2023-05-19T06:35:24.761Z,2.95
2023-05-19T06:37:57.870Z,2.67
2023-05-19T06:40:31.145Z,3.10
2023-05-19T06:43:06.215Z,2.95
2023-05-19T06:45:57.918Z,2.80
2023-05-19T06:48:32.333Z,2.78
2023-05-19T06:51:06.255Z,5.78
2023-05-19T06:53:40.451Z,4.00
2023-05-19T06:56:15.718Z,5.32
2023-05-19T06:58:49.972Z,5.05
2023-05-19T07:01:26.689Z,3.80
2023-05-19T07:04:01.921Z,5.25
2023-05-19T07:06:35.819Z,4.80
2023-05-19T07:11:43.481Z,5.80
2023-05-19T07:14:18.270Z,6.20
2023-05-19T07:16:51.320Z,5.43
2023-05-19T07:21:59.357Z,5.97
2023-05-19T07:24:32.202Z,4.72
2023-05-19T07:27:05.630Z,5.25
2023-05-19T07:29:39.934Z,5.20
2023-05-19T07:32:13.041Z,5.07
2023-05-19T07:34:50.841Z,4.30
2023-05-19T07:37:26.587Z,4.60
2023-05-19T07:40:01.253Z,5.53
2023-05-19T07:42:36.642Z,4.72
2023-05-19T07:45:12.629Z,4.57
2023-05-19T07:47:49.365Z,3.60
2023-05-19T07:50:24.140Z,4.28
2023-05-19T07:52:58.952Z,4.15
2023-05-19T07:55:34.525Z,4.55
2023-05-19T07:58:09.908Z,4.03
2023-05-19T08:00:46.047Z,4.10
2023-05-19T08:03:19.220Z,4.32
2023-05-19T08:05:52.176Z,4.53
2023-05-19T08:08:25.185Z,3.25
2023-05-19T08:13:30.953Z,3.47
2023-05-19T08:16:05.601Z,3.55
2023-05-19T08:18:38.549Z,3.00
2023-05-19T08:21:11.850Z,3.13
2023-05-19T08:23:44.732Z,3.63
2023-05-19T08:26:17.590Z,2.30
2023-05-19T08:28:50.530Z,3.28
2023-05-19T08:33:57.919Z,2.85
2023-05-19T08:36:30.880Z,3.13
2023-05-19T08:39:03.847Z,2.92
2023-05-19T08:41:36.933Z,4.10
2023-05-19T08:46:45.148Z,2.95
2023-05-19T08:49:25.591Z,2.90
2023-05-19T08:52:03.781Z,2.47
2023-05-19T08:54:44.758Z,2.75
2023-05-19T08:57:18.624Z,2.40
2023-05-19T08:59:53.167Z,3.15
2023-05-19T09:02:28.469Z,3.03
2023-05-19T09:05:02.217Z,2.72
2023-05-19T09:07:37.864Z,3.08
2023-05-19T09:10:14.176Z,3.35
2023-05-19T09:12:48.888Z,2.80
2023-05-19T09:15:22.530Z,2.70
2023-05-19T09:18:08.852Z,2.50
2023-05-19T09:20:43.499Z,2.33
2023-05-19T09:23:17.492Z,2.50
2023-05-19T09:25:51.919Z,2.25
2023-05-19T09:28:26.838Z,2.80
2023-05-19T09:31:03.977Z,2.40
2023-05-19T09:33:40.710Z,2.30
2023-05-19T09:36:15.333Z,2.80
2023-05-19T09:38:48.329Z,2.33
2023-05-19T09:41:22.146Z,2.30
2023-05-19T09:43:56.228Z,2.47
2023-05-19T09:46:30.528Z,2.88
2023-05-19T09:49:10.601Z,2.28
2023-05-19T09:51:43.559Z,2.35
2023-05-19T09:54:18.143Z,2.75
2023-05-19T09:56:58.926Z,2.20
2023-05-19T09:59:33.803Z,3.40
2023-05-19T10:02:10.320Z,2.55
2023-05-19T10:04:46.023Z,2.40
2023-05-19T10:07:21.001Z,2.58
2023-05-19T10:09:56.715Z,2.13
2023-05-19T10:12:33.385Z,3.22
2023-05-19T10:15:08.889Z,2.72
2023-05-19T10:17:43.197Z,2.25
2023-05-19T10:20:18.951Z,1.90
2023-05-19T10:22:52.353Z,1.90
2023-05-19T10:25:25.659Z,2.90
2023-05-19T10:28:03.389Z,1.90
2023-05-19T10:30:40.008Z,2.17
2023-05-19T10:33:16.767Z,2.83
2023-05-19T10:36:14.641Z,1.80
2023-05-19T10:38:53.450Z,2.38
2023-05-19T10:41:32.153Z,2.35
2023-05-19T10:44:18.148Z,1.75
2023-05-19T10:46:51.145Z,1.95
2023-05-19T10:49:24.831Z,1.80
2023-05-19T10:51:59.085Z,1.75
2023-05-19T10:54:43.349Z,1.70
2023-05-19T10:57:17.849Z,2.25
2023-05-19T10:59:51.315Z,2.28
2023-05-19T11:02:39.847Z,1.50
2023-05-19T11:05:14.736Z,2.22
2023-05-19T11:08:00.202Z,2.10
2023-05-19T11:10:33.937Z,2.53
2023-05-19T11:13:06.984Z,1.70
2023-05-19T11:15:43.904Z,1.75
2023-05-19T11:18:17.536Z,1.77
2023-05-19T11:21:02.375Z,2.10
2023-05-19T11:23:40.243Z,1.55
2023-05-19T11:26:15.693Z,2.10
2023-05-19T11:28:49.453Z,2.00
2023-05-19T11:31:22.979Z,1.67
2023-05-19T11:33:56.207Z,2.00
2023-05-19T11:36:31.251Z,2.17
2023-05-19T11:39:07.119Z,1.70
2023-05-19T11:41:41.086Z,1.85
2023-05-19T11:44:13.877Z,2.10
2023-05-19T11:49:21.781Z,2.28
2023-05-19T11:51:55.506Z,2.03
2023-05-19T11:54:33.803Z,2.20
2023-05-19T11:57:09.577Z,2.25
2023-05-19T11:59:45.759Z,1.88
2023-05-19T12:02:21.894Z,2.95
2023-05-19T12:05:06.459Z,2.75
2023-05-19T12:07:43.583Z,1.95
2023-05-19T12:10:25.042Z,2.20
2023-05-19T12:12:59.367Z,2.60
2023-05-19T12:15:33.592Z,2.22
2023-05-19T12:18:09.068Z,2.17
2023-05-19T12:20:48.448Z,2.15
2023-05-19T12:23:21.931Z,2.53
2023-05-19T12:26:05.491Z,2.30
2023-05-19T12:28:41.549Z,2.08
2023-05-19T12:31:20.019Z,3.08
2023-05-19T12:33:56.929Z,3.05
2023-05-19T12:36:43.894Z,2.78
2023-05-19T12:39:42.855Z,2.47
2023-05-19T12:42:43.164Z,2.00
2023-05-19T12:45:16.268Z,2.13
2023-05-19T12:47:52.249Z,2.45
2023-05-19T12:50:35.378Z,2.28
2023-05-19T12:53:17.661Z,2.50
2023-05-19T12:55:53.920Z,1.77
2023-05-19T12:58:36.006Z,2.10
2023-05-19T13:01:09.518Z,1.98
2023-05-19T13:03:46.138Z,2.80
2023-05-19T13:06:22.024Z,2.13
2023-05-19T13:08:58.028Z,2.50
2023-05-19T13:11:31.205Z,2.55
2023-05-19T13:14:05.650Z,2.53
2023-05-19T13:16:38.825Z,2.15
2023-05-19T13:19:24.246Z,3.53
2023-05-19T13:21:58.888Z,1.60
2023-05-19T13:24:34.465Z,2.60
2023-05-19T13:27:09.280Z,2.00
2023-05-19T13:29:45.578Z,4.05
2023-05-19T13:32:18.633Z,1.77
2023-05-19T13:34:51.960Z,2.13
2023-05-19T13:37:39.583Z,2.65
2023-05-19T13:40:16.131Z,1.73
2023-05-19T13:42:52.439Z,2.67
2023-05-19T13:45:26.821Z,2.42
2023-05-19T13:48:01.841Z,2.72
2023-05-19T13:50:35.723Z,2.95
2023-05-19T13:53:14.187Z,3.03
2023-05-19T13:55:55.180Z,2.88
2023-05-19T13:58:28.246Z,3.08
2023-05-19T14:01:02.990Z,2.83
2023-05-19T14:03:37.192Z,2.65
2023-05-19T14:06:12.670Z,1.80
2023-05-19T14:08:46.794Z,3.25
2023-05-19T14:11:22.711Z,2.25
2023-05-19T14:13:56.172Z,1.95
2023-05-19T14:16:31.933Z,2.55
2023-05-19T14:19:08.238Z,2.40
2023-05-19T14:21:46.874Z,3.90
2023-05-19T14:24:21.774Z,2.20
2023-05-19T14:26:54.873Z,2.05
2023-05-19T14:29:30.306Z,1.90
2023-05-19T14:32:06.007Z,2.35
2023-05-19T14:34:40.305Z,2.78
2023-05-19T14:37:13.392Z,2.63
2023-05-19T14:40:00.502Z,2.47
2023-05-19T14:42:33.694Z,2.70
2023-05-19T14:45:07.594Z,2.45
2023-05-19T14:47:45.098Z,2.90
2023-05-19T14:50:18.772Z,3.40
2023-05-19T14:52:54.853Z,3.00
2023-05-19T14:55:28.223Z,2.78
2023-05-19T14:58:15.960Z,2.30
2023-05-19T15:00:59.917Z,2.30
2023-05-19T15:03:34.343Z,2.42
2023-05-19T15:06:10.569Z,2.70
2023-05-19T15:08:44.097Z,2.38
2023-05-19T15:11:20.872Z,2.17
2023-05-19T15:13:54.142Z,1.85
2023-05-19T15:16:27.314Z,2.40
2023-05-19T15:19:01.804Z,2.72
2023-05-19T15:21:34.815Z,2.00
2023-05-19T15:24:08.280Z,2.67
2023-05-19T15:26:41.242Z,2.33
2023-05-19T15:29:14.195Z,2.95
2023-05-19T15:31:47.480Z,2.50
2023-05-19T15:34:31.444Z,2.00
2023-05-19T15:37:04.687Z,2.78
2023-05-19T15:39:37.587Z,2.30
2023-05-19T15:42:10.509Z,2.50
2023-05-19T15:44:47.056Z,2.95
2023-05-19T15:47:20.258Z,2.72
2023-05-19T15:49:57.137Z,3.20
2023-05-19T15:52:30.106Z,3.40
2023-05-19T15:55:03.456Z,3.20
2023-05-19T15:57:36.368Z,3.42
2023-05-19T16:02:45.168Z,7.90
2023-05-19T16:05:19.762Z,8.95
2023-05-19T16:07:52.736Z,8.63
2023-05-19T16:10:25.974Z,8.45
2023-05-19T16:12:58.781Z,5.80
2023-05-19T16:15:31.952Z,5.13
2023-05-19T16:18:05.095Z,4.20
2023-05-19T16:20:47.085Z,4.88
2023-05-19T16:23:19.942Z,4.03
2023-05-19T16:25:53.276Z,4.95
2023-05-19T16:28:27.961Z,5.10
2023-05-19T16:31:01.545Z,5.65
2023-05-19T16:33:34.432Z,6.03
2023-05-19T16:36:11.829Z,5.38
2023-05-19T16:38:44.602Z,4.10
2023-05-19T16:41:17.489Z,4.20
2023-05-19T16:43:50.488Z,4.15
2023-05-19T16:49:03.840Z,4.82
2023-05-19T16:51:38.353Z,4.38
2023-05-19T16:54:15.933Z,4.65
2023-05-19T16:56:48.934Z,4.55
2023-05-19T16:59:21.915Z,5.10
2023-05-19T17:01:56.100Z,4.15
2023-05-19T17:04:30.744Z,4.07
2023-05-19T17:07:05.618Z,3.97
2023-05-19T17:09:40.687Z,6.07
2023-05-19T17:12:13.861Z,6.72
2023-05-19T17:14:46.751Z,5.22
2023-05-19T17:17:20.437Z,4.50
2023-05-19T17:19:53.560Z,3.50
2023-05-19T17:22:30.147Z,3.78
2023-05-19T17:25:04.042Z,4.10
2023-05-19T17:27:38.303Z,4.05
2023-05-19T17:30:12.386Z,3.78
2023-05-19T17:32:45.568Z,4.03
2023-05-19T17:35:18.778Z,3.90
2023-05-19T17:37:53.272Z,4.30
2023-05-19T17:40:26.823Z,4.70
2023-05-19T17:42:59.850Z,4.80
2023-05-19T17:45:33.058Z,4.05
2023-05-19T17:48:09.196Z,4.35
2023-05-19T17:50:42.326Z,4.05
2023-05-19T17:53:17.552Z,3.95
2023-05-19T17:55:52.972Z,3.47
2023-05-19T17:58:26.499Z,3.20
2023-05-19T18:00:59.638Z,3.42
2023-05-19T18:03:33.190Z,3.90
2023-05-19T18:06:07.629Z,3.60
2023-05-19T18:08:43.132Z,3.25
2023-05-19T18:11:16.861Z,3.75
2023-05-19T18:13:49.719Z,3.38
2023-05-19T18:18:55.756Z,3.03
2023-05-19T18:21:28.904Z,3.72
2023-05-19T18:24:04.524Z,3.20
2023-05-19T18:26:41.698Z,3.70
2023-05-19T18:29:15.004Z,2.92
2023-05-19T18:31:47.927Z,3.08
2023-05-19T18:34:20.930Z,3.45
2023-05-19T18:36:53.764Z,3.10
2023-05-19T18:42:02.616Z,4.30
2023-05-19T18:44:35.709Z,4.20
2023-05-19T18:47:08.741Z,4.35
2023-05-19T18:49:42.168Z,4.15
2023-05-19T18:52:15.077Z,3.72
2023-05-19T18:57:23.251Z,2.97
2023-05-19T18:59:56.375Z,3.38
2023-05-19T19:02:29.600Z,2.95
2023-05-19T19:05:04.056Z,3.33
2023-05-19T19:07:40.562Z,3.25
2023-05-19T19:10:15.440Z,3.20
2023-05-19T19:12:48.484Z,2.67
2023-05-19T19:15:21.599Z,3.85
2023-05-19T19:17:54.687Z,3.55
2023-05-19T19:20:27.754Z,3.63
2023-05-19T19:23:01.940Z,3.88
2023-05-19T19:25:36.356Z,3.00
2023-05-19T19:28:14.100Z,3.15
2023-05-19T19:30:47.680Z,4.00
2023-05-19T19:33:20.855Z,3.63
2023-05-19T19:35:54.903Z,3.63
2023-05-19T19:38:28.124Z,3.00
2023-05-19T19:41:02.494Z,3.28
2023-05-19T19:43:35.709Z,3.92
2023-05-19T19:46:09.264Z,3.05
2023-05-19T19:48:42.346Z,3.33
2023-05-19T19:51:17.721Z,3.00
2023-05-19T19:53:50.599Z,3.38
2023-05-19T19:58:59.478Z,3.45
2023-05-19T20:01:33.806Z,4.45
2023-05-19T20:04:09.045Z,3.63
2023-05-19T20:06:42.047Z,3.13
2023-05-19T20:11:49.179Z,3.75
2023-05-19T20:14:24.424Z,3.67
2023-05-19T20:19:34.163Z,3.80
2023-05-19T20:22:07.281Z,3.63
2023-05-19T20:27:14.142Z,3.67
2023-05-19T20:29:47.031Z,3.47
2023-05-19T20:34:53.797Z,4.23
2023-05-19T20:37:26.605Z,3.72
2023-05-19T20:39:59.349Z,3.88
2023-05-19T20:42:33.708Z,3.50
2023-05-19T20:45:10.292Z,3.25
2023-05-19T20:47:43.564Z,3.50
2023-05-19T20:50:16.511Z,3.03
2023-05-19T20:55:22.261Z,2.90
2023-05-19T20:57:56.442Z,3.10
2023-05-19T21:00:30.526Z,2.92
2023-05-19T21:03:03.612Z,3.15
2023-05-19T21:08:12.845Z,2.88
2023-05-19T21:10:45.816Z,3.22
2023-05-19T21:15:52.806Z,3.58
2023-05-19T21:18:25.624Z,4.03
2023-05-19T21:20:58.404Z,2.85
2023-05-19T21:23:31.338Z,3.33
2023-05-19T21:31:11.735Z,2.92
2023-05-19T21:36:18.332Z,3.07
2023-05-19T21:38:51.773Z,2.38
2023-05-19T21:41:24.547Z,2.75
2023-05-19T21:43:58.771Z,2.78
2023-05-19T21:46:31.927Z,2.85
2023-05-19T21:49:06.380Z,3.05
2023-05-19T21:51:40.600Z,2.90
2023-05-19T21:54:13.440Z,3.08
2023-05-19T21:56:46.247Z,2.90
2023-05-19T22:01:56.037Z,2.78
2023-05-19T22:04:31.477Z,3.38
2023-05-19T22:07:04.368Z,3.72
2023-05-19T22:09:38.047Z,3.05
2023-05-19T22:12:10.838Z,2.50
2023-05-19T22:14:44.962Z,2.70
2023-05-19T22:17:17.743Z,2.47
2023-05-19T22:19:50.528Z,2.97
2023-05-19T22:22:23.294Z,3.42
2023-05-19T22:24:56.686Z,2.78
2023-05-19T22:27:29.435Z,2.92
2023-05-19T22:30:03.708Z,2.80
2023-05-19T22:32:36.929Z,2.45
2023-05-19T22:35:10.831Z,2.70
2023-05-19T22:37:43.533Z,2.63
2023-05-19T22:40:16.448Z,2.10
2023-05-19T22:45:23.606Z,3.33
2023-05-19T22:47:56.667Z,2.05
2023-05-19T22:50:29.569Z,2.50
2023-05-19T22:55:35.468Z,2.63
2023-05-19T22:58:08.986Z,2.92
2023-05-19T23:00:43.299Z,2.50
2023-05-19T23:03:16.357Z,2.40
2023-05-19T23:05:49.288Z,2.22
2023-05-19T23:10:54.760Z,1.97
2023-05-19T23:16:01.863Z,2.50
2023-05-19T23:18:34.575Z,2.35
2023-05-19T23:21:07.522Z,2.97
2023-05-19T23:23:43.096Z,2.13
2023-05-19T23:26:16.750Z,2.70
2023-05-19T23:28:49.566Z,3.13
2023-05-19T23:31:24.219Z,2.10
2023-05-19T23:33:57.063Z,2.85
2023-05-19T23:36:29.908Z,2.72
2023-05-19T23:39:02.905Z,2.75
2023-05-19T23:44:09.692Z,2.53
2023-05-19T23:49:16.738Z,2.72
2023-05-19T23:54:22.806Z,2.50
2023-05-19T23:56:56.590Z,2.20
2023-05-19T23:59:29.684Z,2.00
